Elisalex Schulte — 9V9154 — position and weather

sailwx.info

Track history (hours):
 
Tides and Currents Weather Stations Pressure Air Temp Water Temp Dewpoint Dewpoint Depression Visibility Wind Speed Wind Dir Waves Ship Positions

Elisalex Schulte

Last reported at 2017-Feb-28 14:32 UTC. Time now 2017-Feb-28 14:43 UTC.
Position N 49°28' W 000°08'.

Length 144 m; draft 6 m.

Type: Tanker. MMSI: 563052000.

Date/timePositionNaut miles runAvg speedWind from/ knotsBaromVisibWave heightAir tempDewpointWater temp
2017-Feb-28 14:32N 49°28' W 000°08'0 0.0
2017-Feb-28 13:32N 49°28' W 000°08'0 0.0
2017-Feb-28 12:32N 49°28' W 000°08'0 0.0
2017-Feb-28 11:32N 49°28' W 000°08'0 0.0
2017-Feb-28 10:32N 49°28' W 000°08'0 0.0
2017-Feb-28 09:32N 49°28' W 000°08'0 0.0
2017-Feb-28 08:32N 49°28' W 000°08'0 0.0
2017-Feb-28 07:29N 49°28' W 000°08'0 0.1
2017-Feb-28 06:32N 49°28' W 000°08'0 0.0
2017-Feb-28 05:32N 49°28' W 000°08'0 0.0
2017-Feb-28 04:32N 49°28' W 000°08'0 0.0
2017-Feb-28 03:32N 49°28' W 000°08'0 0.0
2017-Feb-28 02:32N 49°28' W 000°08'0 0.0
2017-Feb-28 01:32N 49°28' W 000°08'0 0.0
2017-Feb-28 00:32N 49°28' W 000°08'0 0.0
2017-Feb-27 23:32N 49°28' W 000°08'0 0.0
2017-Feb-27 22:32N 49°28' W 000°08'0 0.0
2017-Feb-27 21:32N 49°28' W 000°08'0 0.0
2017-Feb-27 20:32N 49°28' W 000°08'0 0.0
2017-Feb-27 19:32N 49°28' W 000°08'0 0.0
2017-Feb-27 18:32N 49°28' W 000°08'0 0.0
2017-Feb-27 17:32N 49°28' W 000°08'0 0.0
2017-Feb-27 16:32N 49°28' W 000°08'0 0.0
2017-Feb-27 15:33N 49°28' W 000°08'0 0.0
2017-Feb-27 14:33N 49°28' W 000°08'0 0.0
2017-Feb-27 13:33N 49°28' W 000°08'0 0.0
2017-Feb-27 12:33N 49°28' W 000°08'0 0.0
2017-Feb-27 11:33N 49°28' W 000°08'0 0.0
2017-Feb-27 10:33N 49°28' W 000°08'0 0.0
2017-Feb-27 09:33N 49°28' W 000°08'0 0.0
2017-Feb-27 08:33N 49°28' W 000°08'0 0.0
2017-Feb-27 07:33N 49°28' W 000°08'0 0.0
2017-Feb-27 06:33N 49°28' W 000°08'0 0.0
2017-Feb-27 05:33N 49°28' W 000°08'0 0.0
2017-Feb-27 04:33N 49°28' W 000°08'0 0.0
2017-Feb-27 03:33N 49°28' W 000°08'0 0.0
2017-Feb-27 02:33N 49°28' W 000°08'0 0.0
2017-Feb-27 01:33N 49°28' W 000°08'0 0.0
2017-Feb-27 00:33N 49°28' W 000°08'0 0.0
2017-Feb-26 23:33N 49°28' W 000°08'0 0.0
2017-Feb-26 22:33N 49°28' W 000°08'0 0.0
2017-Feb-26 21:33N 49°28' W 000°08'0 0.0
2017-Feb-26 20:33N 49°28' W 000°08'2 2.2
2017-Feb-26 19:33N 49°30' W 000°10'1111.0
2017-Feb-26 18:33N 49°41' W 000°10'1312.7
2017-Feb-26 17:33N 49°54' W 000°09'1212.3
2017-Feb-26 16:33N 50°06' W 000°10'1212.0
2017-Feb-26 15:33N 50°18' W 000°10'1211.8
2017-Feb-26 14:33N 50°28' W 000°00'1212.3
2017-Feb-26 13:33N 50°33' E 000°18'1211.7
2017-Feb-26 12:33N 50°37' E 000°35'1110.7
2017-Feb-26 11:33N 50°44' E 000°48'2010.0
2017-Feb-26 09:33N 50°57' E 001°12'1211.6
2017-Feb-26 08:33N 51°04' E 001°27'1413.9
2017-Feb-26 07:34N 51°13' E 001°44'1313.5
2017-Feb-26 06:33N 51°25' E 001°55'1211.7
2017-Feb-26 05:33N 51°33' E 002°08'65 9.3
2017-Feb-25 22:33N 52°03' E 003°41'9 9.3
2017-Feb-25 21:33N 52°02' E 003°56'1010.5
2017-Feb-25 20:33N 51°56' E 004°11'1 0.9
2017-Feb-25 19:33N 51°56' E 004°12'0 0.0
2017-Feb-25 18:33N 51°56' E 004°12'0 0.0
2017-Feb-25 17:33N 51°56' E 004°12'0 0.0
2017-Feb-25 16:33N 51°56' E 004°12'0 0.0
2017-Feb-25 15:33N 51°56' E 004°12'0 0.0
2017-Feb-25 14:33N 51°56' E 004°12'0 0.0
2017-Feb-25 13:33N 51°56' E 004°12'0 0.0
2017-Feb-25 12:33N 51°56' E 004°12'0 0.0
2017-Feb-25 11:33N 51°56' E 004°12'0 0.0
2017-Feb-25 10:33N 51°56' E 004°12'0 0.0
2017-Feb-25 09:33N 51°56' E 004°12'0 0.0
2017-Feb-25 08:34N 51°56' E 004°12'0 0.0
2017-Feb-25 07:33N 51°56' E 004°12'0 0.0
2017-Feb-25 06:34N 51°56' E 004°12'0 0.0
2017-Feb-25 05:33N 51°56' E 004°12'0 0.0
2017-Feb-25 04:33N 51°56' E 004°12'0 0.0
2017-Feb-25 03:33N 51°56' E 004°12'0 0.0
2017-Feb-25 02:34N 51°56' E 004°12'0 0.0
2017-Feb-25 01:33N 51°56' E 004°12'0 0.0
2017-Feb-25 00:33N 51°56' E 004°12'0 0.0
2017-Feb-24 23:33N 51°56' E 004°12'1 0.7
2017-Feb-24 22:33N 51°55' E 004°12'0 0.1
2017-Feb-24 21:33N 51°55' E 004°12'0 0.0
2017-Feb-24 20:33N 51°55' E 004°12'0 0.0
2017-Feb-24 19:33N 51°55' E 004°12'0 0.0
2017-Feb-24 18:33N 51°55' E 004°12'0 0.0
2017-Feb-24 17:33N 51°55' E 004°12'0 0.0
2017-Feb-24 16:33N 51°55' E 004°12'0 0.0
2017-Feb-24 15:33N 51°55' E 004°12'0 0.0
2017-Feb-24 14:33N 51°55' E 004°12'0 0.0
2017-Feb-24 13:33N 51°55' E 004°12'0 0.0
2017-Feb-24 12:33N 51°55' E 004°12'0 0.0
2017-Feb-24 11:33N 51°55' E 004°12'0 0.0
2017-Feb-24 10:33N 51°55' E 004°12'0 0.0
2017-Feb-24 09:34N 51°55' E 004°12'0 0.0
2017-Feb-24 08:33N 51°55' E 004°12'0 0.0
2017-Feb-24 07:33N 51°55' E 004°12'0 0.0
2017-Feb-24 06:33N 51°55' E 004°12'0 0.0
2017-Feb-24 05:33N 51°55' E 004°12'0 0.0
2017-Feb-24 04:33N 51°55' E 004°12'0 0.0
2017-Feb-24 03:33N 51°55' E 004°12'0 0.0
2017-Feb-24 02:33N 51°55' E 004°12'0 0.0
2017-Feb-24 01:33N 51°55' E 004°12'0 0.0
2017-Feb-24 00:34N 51°55' E 004°12'0 0.0
2017-Feb-23 23:33N 51°55' E 004°12'0 0.0
2017-Feb-23 22:33N 51°55' E 004°12'0 0.0
2017-Feb-23 21:33N 51°55' E 004°12'0 0.0
2017-Feb-23 20:34N 51°55' E 004°12'0 0.0
2017-Feb-23 19:33N 51°55' E 004°12'0 0.0
2017-Feb-23 18:33N 51°55' E 004°12'0 0.0
2017-Feb-23 17:33N 51°55' E 004°12'0 0.0
2017-Feb-23 16:28N 51°55' E 004°12'0 0.0
2017-Feb-23 15:25N 51°55' E 004°12'0 0.0
2017-Feb-23 14:28N 51°55' E 004°12'0 0.0
2017-Feb-23 13:07N 51°55' E 004°12'0 0.0
2017-Feb-23 12:31N 51°55' E 004°12'0 0.0
2017-Feb-23 11:19N 51°55' E 004°12'0 0.0
2017-Feb-23 10:31N 51°55' E 004°12'0 0.0
2017-Feb-23 08:29N 51°55' E 004°12'5 5.2
2017-Feb-23 07:33N 51°58' E 004°06'9 9.3
2017-Feb-23 06:33N 51°59' E 003°51'8 8.4
2017-Feb-23 05:33N 51°57' E 003°38'1010.2
2017-Feb-23 04:32N 51°55' E 003°22'4511.2
2017-Feb-23 00:33N 51°33' E 002°19'1312.9
2017-Feb-22 23:33N 51°22' E 002°07'1212.1
2017-Feb-22 22:33N 51°12' E 001°58'1313.5
2017-Feb-22 21:33N 51°03' E 001°41'7111.9
2017-Feb-22 15:33N 50°22' E 000°09'1311.9
2017-Feb-22 14:30N 50°21' W 000°11'1411.2
2017-Feb-22 13:17N 50°29' W 000°29'811.7
2017-Feb-22 12:33N 50°32' W 000°41'1111.1
2017-Feb-22 11:33N 50°35' W 000°58'5 4.8
2017-Feb-22 10:33N 50°38' W 001°03'0 0.1
2017-Feb-22 09:28N 50°38' W 001°03'0 0.0
2017-Feb-22 08:21N 50°38' W 001°03'0 0.0
2017-Feb-22 07:33N 50°38' W 001°03'0 0.0
2017-Feb-22 06:33N 50°38' W 001°03'0 0.0
2017-Feb-22 05:30N 50°38' W 001°03'0 0.0
2017-Feb-22 04:33N 50°38' W 001°03'0 0.0
2017-Feb-22 03:33N 50°38' W 001°03'0 0.0
2017-Feb-22 02:33N 50°38' W 001°03'0 0.0
2017-Feb-22 01:33N 50°38' W 001°03'0 0.0
2017-Feb-22 00:33N 50°38' W 001°03'0 0.1
2017-Feb-21 23:33N 50°38' W 001°03'0 0.0
2017-Feb-21 22:27N 50°38' W 001°03'0 0.0
2017-Feb-21 21:30N 50°38' W 001°03'0 0.1
2017-Feb-21 20:33N 50°38' W 001°03'0 0.1
2017-Feb-21 19:33N 50°38' W 001°03'5 4.8
2017-Feb-21 18:33N 50°42' W 000°58'10 9.7
2017-Feb-21 17:33N 50°46' W 001°12'7 7.0
2017-Feb-21 16:33N 50°51' W 001°20'0 0.1
2017-Feb-21 15:11N 50°51' W 001°20'0 0.0
2017-Feb-21 14:33N 50°51' W 001°20'0 0.0
2017-Feb-21 13:33N 50°51' W 001°20'0 0.0
2017-Feb-21 12:33N 50°51' W 001°20'0 0.0
2017-Feb-21 11:33N 50°51' W 001°20'0 0.0
2017-Feb-21 10:34N 50°51' W 001°20'0 0.0
2017-Feb-21 09:33N 50°51' W 001°20'0 0.0
2017-Feb-21 08:33N 50°51' W 001°20'0 0.0
2017-Feb-21 07:33N 50°51' W 001°20'0 0.0
2017-Feb-21 06:33N 50°51' W 001°20'0 0.0
2017-Feb-21 05:33N 50°51' W 001°20'0 0.0
2017-Feb-21 04:33N 50°51' W 001°20'0 0.0
2017-Feb-21 03:33N 50°51' W 001°20'0 0.0
2017-Feb-21 02:33N 50°51' W 001°20'0 0.0
2017-Feb-21 01:33N 50°51' W 001°20'0 0.0
2017-Feb-21 00:33N 50°51' W 001°20'0 0.0
2017-Feb-20 23:33N 50°51' W 001°20'0 0.0
2017-Feb-20 22:33N 50°51' W 001°20'0 0.0
2017-Feb-20 21:33N 50°51' W 001°20'0 0.0
2017-Feb-20 20:33N 50°51' W 001°20'0 0.0
2017-Feb-20 19:33N 50°51' W 001°20'0 0.0
2017-Feb-20 18:33N 50°51' W 001°20'0 0.0
2017-Feb-20 17:33N 50°51' W 001°20'0 0.0
2017-Feb-20 16:33N 50°51' W 001°20'0 0.0
2017-Feb-20 15:33N 50°51' W 001°20'0 0.0
2017-Feb-20 14:33N 50°51' W 001°20'0 0.0
2017-Feb-20 13:33N 50°51' W 001°20'0 0.0
2017-Feb-20 12:33N 50°51' W 001°20'0 0.0
2017-Feb-20 11:33N 50°51' W 001°20'0 0.0
2017-Feb-20 10:33N 50°51' W 001°20'0 0.0
2017-Feb-20 09:33N 50°51' W 001°20'0 0.0
2017-Feb-20 08:33N 50°51' W 001°20'0 0.0
2017-Feb-20 07:33N 50°51' W 001°20'0 0.0
2017-Feb-20 06:33N 50°51' W 001°20'0 0.0
2017-Feb-20 05:33N 50°51' W 001°20'0 0.0
2017-Feb-20 04:33N 50°51' W 001°20'0 0.0
2017-Feb-20 03:33N 50°51' W 001°20'0 0.0
2017-Feb-20 02:34N 50°51' W 001°20'0 0.0
2017-Feb-20 01:33N 50°51' W 001°20'0 0.0
2017-Feb-20 00:33N 50°51' W 001°20'0 0.0
2017-Feb-19 23:33N 50°51' W 001°20'0 0.0
2017-Feb-19 22:33N 50°51' W 001°20'0 0.0
2017-Feb-19 21:33N 50°51' W 001°20'0 0.0
2017-Feb-19 20:33N 50°51' W 001°20'0 0.0
2017-Feb-19 19:34N 50°51' W 001°20'0 0.0
2017-Feb-19 18:33N 50°51' W 001°20'0 0.0
2017-Feb-19 12:33N 50°51' W 001°20'0 0.0
2017-Feb-19 11:33N 50°51' W 001°20'0 0.0
2017-Feb-19 10:33N 50°51' W 001°20'0 0.0
2017-Feb-19 09:33N 50°51' W 001°20'0 0.0
2017-Feb-19 08:33N 50°51' W 001°20'0 0.0
2017-Feb-19 07:33N 50°51' W 001°20'0 0.0
2017-Feb-19 06:33N 50°51' W 001°20'0 0.0
2017-Feb-19 05:33N 50°51' W 001°20'0 0.0
2017-Feb-19 04:33N 50°51' W 001°20'0 0.0
2017-Feb-19 03:33N 50°51' W 001°20'0 0.0
2017-Feb-19 02:33N 50°51' W 001°20'0 0.0
2017-Feb-19 01:33N 50°51' W 001°20'0 0.0
2017-Feb-19 00:33N 50°51' W 001°20'0 0.0
2017-Feb-18 23:33N 50°51' W 001°20'4 4.3
2017-Feb-18 22:34N 50°47' W 001°18'9 8.7
2017-Feb-18 21:34N 50°45' W 001°05'6 6.4
2017-Feb-18 20:34N 50°39' W 001°01'0 0.0
2017-Feb-18 19:34N 50°39' W 001°01'0 0.0
2017-Feb-18 18:34N 50°39' W 001°01'0 0.0
2017-Feb-18 17:34N 50°39' W 001°01'0 0.0
2017-Feb-18 16:34N 50°39' W 001°01'0 0.1
2017-Feb-18 15:34N 50°39' W 001°01'0 0.1
2017-Feb-18 14:34N 50°39' W 001°00'  
Track history (hours):
 
Tides and Currents Weather Stations Pressure Air Temp Water Temp Dewpoint Dewpoint Depression Visibility Wind Speed Wind Dir Waves Ship Positions

Elisalex Schulte

Last reported at 2017-Feb-28 14:32 UTC. Time now 2017-Feb-28 14:43 UTC.
Position N 49°28' W 000°08'.

Length 144 m; draft 6 m.

Type: Tanker. MMSI: 563052000.

Date/timePositionNaut miles runAvg speedWind from/ knotsBaromVisibWave heightAir tempDewpointWater temp
2017-Feb-28 14:32N 49°28' W 000°08'0 0.0
2017-Feb-28 13:32N 49°28' W 000°08'0 0.0
2017-Feb-28 12:32N 49°28' W 000°08'0 0.0
2017-Feb-28 11:32N 49°28' W 000°08'0 0.0
2017-Feb-28 10:32N 49°28' W 000°08'0 0.0
2017-Feb-28 09:32N 49°28' W 000°08'0 0.0
2017-Feb-28 08:32N 49°28' W 000°08'0 0.0
2017-Feb-28 07:29N 49°28' W 000°08'0 0.1
2017-Feb-28 06:32N 49°28' W 000°08'0 0.0
2017-Feb-28 05:32N 49°28' W 000°08'0 0.0
2017-Feb-28 04:32N 49°28' W 000°08'0 0.0
2017-Feb-28 03:32N 49°28' W 000°08'0 0.0
2017-Feb-28 02:32N 49°28' W 000°08'0 0.0
2017-Feb-28 01:32N 49°28' W 000°08'0 0.0
2017-Feb-28 00:32N 49°28' W 000°08'0 0.0
2017-Feb-27 23:32N 49°28' W 000°08'0 0.0
2017-Feb-27 22:32N 49°28' W 000°08'0 0.0
2017-Feb-27 21:32N 49°28' W 000°08'0 0.0
2017-Feb-27 20:32N 49°28' W 000°08'0 0.0
2017-Feb-27 19:32N 49°28' W 000°08'0 0.0
2017-Feb-27 18:32N 49°28' W 000°08'0 0.0
2017-Feb-27 17:32N 49°28' W 000°08'0 0.0
2017-Feb-27 16:32N 49°28' W 000°08'0 0.0
2017-Feb-27 15:33N 49°28' W 000°08'0 0.0
2017-Feb-27 14:33N 49°28' W 000°08'0 0.0
2017-Feb-27 13:33N 49°28' W 000°08'0 0.0
2017-Feb-27 12:33N 49°28' W 000°08'0 0.0
2017-Feb-27 11:33N 49°28' W 000°08'0 0.0
2017-Feb-27 10:33N 49°28' W 000°08'0 0.0
2017-Feb-27 09:33N 49°28' W 000°08'0 0.0
2017-Feb-27 08:33N 49°28' W 000°08'0 0.0
2017-Feb-27 07:33N 49°28' W 000°08'0 0.0
2017-Feb-27 06:33N 49°28' W 000°08'0 0.0
2017-Feb-27 05:33N 49°28' W 000°08'0 0.0
2017-Feb-27 04:33N 49°28' W 000°08'0 0.0
2017-Feb-27 03:33N 49°28' W 000°08'0 0.0
2017-Feb-27 02:33N 49°28' W 000°08'0 0.0
2017-Feb-27 01:33N 49°28' W 000°08'0 0.0
2017-Feb-27 00:33N 49°28' W 000°08'0 0.0
2017-Feb-26 23:33N 49°28' W 000°08'0 0.0
2017-Feb-26 22:33N 49°28' W 000°08'0 0.0
2017-Feb-26 21:33N 49°28' W 000°08'0 0.0
2017-Feb-26 20:33N 49°28' W 000°08'2 2.2
2017-Feb-26 19:33N 49°30' W 000°10'1111.0
2017-Feb-26 18:33N 49°41' W 000°10'1312.7
2017-Feb-26 17:33N 49°54' W 000°09'1212.3
2017-Feb-26 16:33N 50°06' W 000°10'1212.0
2017-Feb-26 15:33N 50°18' W 000°10'1211.8
2017-Feb-26 14:33N 50°28' W 000°00'1212.3
2017-Feb-26 13:33N 50°33' E 000°18'1211.7
2017-Feb-26 12:33N 50°37' E 000°35'1110.7
2017-Feb-26 11:33N 50°44' E 000°48'2010.0
2017-Feb-26 09:33N 50°57' E 001°12'1211.6
2017-Feb-26 08:33N 51°04' E 001°27'1413.9
2017-Feb-26 07:34N 51°13' E 001°44'1313.5
2017-Feb-26 06:33N 51°25' E 001°55'1211.7
2017-Feb-26 05:33N 51°33' E 002°08'65 9.3
2017-Feb-25 22:33N 52°03' E 003°41'9 9.3
2017-Feb-25 21:33N 52°02' E 003°56'1010.5
2017-Feb-25 20:33N 51°56' E 004°11'1 0.9
2017-Feb-25 19:33N 51°56' E 004°12'0 0.0
2017-Feb-25 18:33N 51°56' E 004°12'0 0.0
2017-Feb-25 17:33N 51°56' E 004°12'0 0.0
2017-Feb-25 16:33N 51°56' E 004°12'0 0.0
2017-Feb-25 15:33N 51°56' E 004°12'0 0.0
2017-Feb-25 14:33N 51°56' E 004°12'0 0.0
2017-Feb-25 13:33N 51°56' E 004°12'0 0.0
2017-Feb-25 12:33N 51°56' E 004°12'0 0.0
2017-Feb-25 11:33N 51°56' E 004°12'0 0.0
2017-Feb-25 10:33N 51°56' E 004°12'0 0.0
2017-Feb-25 09:33N 51°56' E 004°12'0 0.0
2017-Feb-25 08:34N 51°56' E 004°12'0 0.0
2017-Feb-25 07:33N 51°56' E 004°12'0 0.0
2017-Feb-25 06:34N 51°56' E 004°12'0 0.0
2017-Feb-25 05:33N 51°56' E 004°12'0 0.0
2017-Feb-25 04:33N 51°56' E 004°12'0 0.0
2017-Feb-25 03:33N 51°56' E 004°12'0 0.0
2017-Feb-25 02:34N 51°56' E 004°12'0 0.0
2017-Feb-25 01:33N 51°56' E 004°12'0 0.0
2017-Feb-25 00:33N 51°56' E 004°12'0 0.0
2017-Feb-24 23:33N 51°56' E 004°12'1 0.7
2017-Feb-24 22:33N 51°55' E 004°12'0 0.1
2017-Feb-24 21:33N 51°55' E 004°12'0 0.0
2017-Feb-24 20:33N 51°55' E 004°12'0 0.0
2017-Feb-24 19:33N 51°55' E 004°12'0 0.0
2017-Feb-24 18:33N 51°55' E 004°12'0 0.0
2017-Feb-24 17:33N 51°55' E 004°12'0 0.0
2017-Feb-24 16:33N 51°55' E 004°12'0 0.0
2017-Feb-24 15:33N 51°55' E 004°12'0 0.0
2017-Feb-24 14:33N 51°55' E 004°12'0 0.0
2017-Feb-24 13:33N 51°55' E 004°12'0 0.0
2017-Feb-24 12:33N 51°55' E 004°12'0 0.0
2017-Feb-24 11:33N 51°55' E 004°12'0 0.0
2017-Feb-24 10:33N 51°55' E 004°12'0 0.0
2017-Feb-24 09:34N 51°55' E 004°12'0 0.0
2017-Feb-24 08:33N 51°55' E 004°12'0 0.0
2017-Feb-24 07:33N 51°55' E 004°12'0 0.0
2017-Feb-24 06:33N 51°55' E 004°12'0 0.0
2017-Feb-24 05:33N 51°55' E 004°12'0 0.0
2017-Feb-24 04:33N 51°55' E 004°12'0 0.0
2017-Feb-24 03:33N 51°55' E 004°12'0 0.0
2017-Feb-24 02:33N 51°55' E 004°12'0 0.0
2017-Feb-24 01:33N 51°55' E 004°12'0 0.0
2017-Feb-24 00:34N 51°55' E 004°12'0 0.0
2017-Feb-23 23:33N 51°55' E 004°12'0 0.0
2017-Feb-23 22:33N 51°55' E 004°12'0 0.0
2017-Feb-23 21:33N 51°55' E 004°12'0 0.0
2017-Feb-23 20:34N 51°55' E 004°12'0 0.0
2017-Feb-23 19:33N 51°55' E 004°12'0 0.0
2017-Feb-23 18:33N 51°55' E 004°12'0 0.0
2017-Feb-23 17:33N 51°55' E 004°12'0 0.0
2017-Feb-23 16:28N 51°55' E 004°12'0 0.0
2017-Feb-23 15:25N 51°55' E 004°12'0 0.0
2017-Feb-23 14:28N 51°55' E 004°12'0 0.0
2017-Feb-23 13:07N 51°55' E 004°12'0 0.0
2017-Feb-23 12:31N 51°55' E 004°12'0 0.0
2017-Feb-23 11:19N 51°55' E 004°12'0 0.0
2017-Feb-23 10:31N 51°55' E 004°12'0 0.0
2017-Feb-23 08:29N 51°55' E 004°12'5 5.2
2017-Feb-23 07:33N 51°58' E 004°06'9 9.3
2017-Feb-23 06:33N 51°59' E 003°51'8 8.4
2017-Feb-23 05:33N 51°57' E 003°38'1010.2
2017-Feb-23 04:32N 51°55' E 003°22'4511.2
2017-Feb-23 00:33N 51°33' E 002°19'1312.9
2017-Feb-22 23:33N 51°22' E 002°07'1212.1
2017-Feb-22 22:33N 51°12' E 001°58'1313.5
2017-Feb-22 21:33N 51°03' E 001°41'7111.9
2017-Feb-22 15:33N 50°22' E 000°09'1311.9
2017-Feb-22 14:30N 50°21' W 000°11'1411.2
2017-Feb-22 13:17N 50°29' W 000°29'811.7
2017-Feb-22 12:33N 50°32' W 000°41'1111.1
2017-Feb-22 11:33N 50°35' W 000°58'5 4.8
2017-Feb-22 10:33N 50°38' W 001°03'0 0.1
2017-Feb-22 09:28N 50°38' W 001°03'0 0.0
2017-Feb-22 08:21N 50°38' W 001°03'0 0.0
2017-Feb-22 07:33N 50°38' W 001°03'0 0.0
2017-Feb-22 06:33N 50°38' W 001°03'0 0.0
2017-Feb-22 05:30N 50°38' W 001°03'0 0.0
2017-Feb-22 04:33N 50°38' W 001°03'0 0.0
2017-Feb-22 03:33N 50°38' W 001°03'0 0.0
2017-Feb-22 02:33N 50°38' W 001°03'0 0.0
2017-Feb-22 01:33N 50°38' W 001°03'0 0.0
2017-Feb-22 00:33N 50°38' W 001°03'0 0.1
2017-Feb-21 23:33N 50°38' W 001°03'0 0.0
2017-Feb-21 22:27N 50°38' W 001°03'0 0.0
2017-Feb-21 21:30N 50°38' W 001°03'0 0.1
2017-Feb-21 20:33N 50°38' W 001°03'0 0.1
2017-Feb-21 19:33N 50°38' W 001°03'5 4.8
2017-Feb-21 18:33N 50°42' W 000°58'10 9.7
2017-Feb-21 17:33N 50°46' W 001°12'7 7.0
2017-Feb-21 16:33N 50°51' W 001°20'0 0.1
2017-Feb-21 15:11N 50°51' W 001°20'0 0.0
2017-Feb-21 14:33N 50°51' W 001°20'0 0.0
2017-Feb-21 13:33N 50°51' W 001°20'0 0.0
2017-Feb-21 12:33N 50°51' W 001°20'0 0.0
2017-Feb-21 11:33N 50°51' W 001°20'0 0.0
2017-Feb-21 10:34N 50°51' W 001°20'0 0.0
2017-Feb-21 09:33N 50°51' W 001°20'0 0.0
2017-Feb-21 08:33N 50°51' W 001°20'0 0.0
2017-Feb-21 07:33N 50°51' W 001°20'0 0.0
2017-Feb-21 06:33N 50°51' W 001°20'0 0.0
2017-Feb-21 05:33N 50°51' W 001°20'0 0.0
2017-Feb-21 04:33N 50°51' W 001°20'0 0.0
2017-Feb-21 03:33N 50°51' W 001°20'0 0.0
2017-Feb-21 02:33N 50°51' W 001°20'0 0.0
2017-Feb-21 01:33N 50°51' W 001°20'0 0.0
2017-Feb-21 00:33N 50°51' W 001°20'0 0.0
2017-Feb-20 23:33N 50°51' W 001°20'0 0.0
2017-Feb-20 22:33N 50°51' W 001°20'0 0.0
2017-Feb-20 21:33N 50°51' W 001°20'0 0.0
2017-Feb-20 20:33N 50°51' W 001°20'0 0.0
2017-Feb-20 19:33N 50°51' W 001°20'0 0.0
2017-Feb-20 18:33N 50°51' W 001°20'0 0.0
2017-Feb-20 17:33N 50°51' W 001°20'0 0.0
2017-Feb-20 16:33N 50°51' W 001°20'0 0.0
2017-Feb-20 15:33N 50°51' W 001°20'0 0.0
2017-Feb-20 14:33N 50°51' W 001°20'0 0.0
2017-Feb-20 13:33N 50°51' W 001°20'0 0.0
2017-Feb-20 12:33N 50°51' W 001°20'0 0.0
2017-Feb-20 11:33N 50°51' W 001°20'0 0.0
2017-Feb-20 10:33N 50°51' W 001°20'0 0.0
2017-Feb-20 09:33N 50°51' W 001°20'0 0.0
2017-Feb-20 08:33N 50°51' W 001°20'0 0.0
2017-Feb-20 07:33N 50°51' W 001°20'0 0.0
2017-Feb-20 06:33N 50°51' W 001°20'0 0.0
2017-Feb-20 05:33N 50°51' W 001°20'0 0.0
2017-Feb-20 04:33N 50°51' W 001°20'0 0.0
2017-Feb-20 03:33N 50°51' W 001°20'0 0.0
2017-Feb-20 02:34N 50°51' W 001°20'0 0.0
2017-Feb-20 01:33N 50°51' W 001°20'0 0.0
2017-Feb-20 00:33N 50°51' W 001°20'0 0.0
2017-Feb-19 23:33N 50°51' W 001°20'0 0.0
2017-Feb-19 22:33N 50°51' W 001°20'0 0.0
2017-Feb-19 21:33N 50°51' W 001°20'0 0.0
2017-Feb-19 20:33N 50°51' W 001°20'0 0.0
2017-Feb-19 19:34N 50°51' W 001°20'0 0.0
2017-Feb-19 18:33N 50°51' W 001°20'0 0.0
2017-Feb-19 12:33N 50°51' W 001°20'0 0.0
2017-Feb-19 11:33N 50°51' W 001°20'0 0.0
2017-Feb-19 10:33N 50°51' W 001°20'0 0.0
2017-Feb-19 09:33N 50°51' W 001°20'0 0.0
2017-Feb-19 08:33N 50°51' W 001°20'0 0.0
2017-Feb-19 07:33N 50°51' W 001°20'0 0.0
2017-Feb-19 06:33N 50°51' W 001°20'0 0.0
2017-Feb-19 05:33N 50°51' W 001°20'0 0.0
2017-Feb-19 04:33N 50°51' W 001°20'0 0.0
2017-Feb-19 03:33N 50°51' W 001°20'0 0.0
2017-Feb-19 02:33N 50°51' W 001°20'0 0.0
2017-Feb-19 01:33N 50°51' W 001°20'0 0.0
2017-Feb-19 00:33N 50°51' W 001°20'0 0.0
2017-Feb-18 23:33N 50°51' W 001°20'4 4.3
2017-Feb-18 22:34N 50°47' W 001°18'9 8.7
2017-Feb-18 21:34N 50°45' W 001°05'6 6.4
2017-Feb-18 20:34N 50°39' W 001°01'0 0.0
2017-Feb-18 19:34N 50°39' W 001°01'0 0.0
2017-Feb-18 18:34N 50°39' W 001°01'0 0.0
2017-Feb-18 17:34N 50°39' W 001°01'0 0.0
2017-Feb-18 16:34N 50°39' W 001°01'0 0.1
2017-Feb-18 15:34N 50°39' W 001°01'0 0.1
2017-Feb-18 14:34N 50°39' W 001°00'  

Dump ship's entire track history